sensor_id;sensor_type;location;lat;lon;timestamp;P1;durP1;ratioP1;P2;durP2;ratioP2
3491;SDS011;1760;52.480;13.422;2023-12-14T00:01:11;13.73;;;6.93;;
3491;SDS011;1760;52.480;13.422;2023-12-14T00:03:38;19.80;;;7.77;;
3491;SDS011;1760;52.480;13.422;2023-12-14T00:06:07;11.13;;;6.23;;
3491;SDS011;1760;52.480;13.422;2023-12-14T00:08:34;15.60;;;7.37;;
3491;SDS011;1760;52.480;13.422;2023-12-14T00:11:02;11.93;;;8.03;;
3491;SDS011;1760;52.480;13.422;2023-12-14T00:13:30;15.30;;;7.60;;
3491;SDS011;1760;52.480;13.422;2023-12-14T00:15:57;12.43;;;8.10;;
3491;SDS011;1760;52.480;13.422;2023-12-14T00:18:24;16.97;;;8.20;;
3491;SDS011;1760;52.480;13.422;2023-12-14T00:20:51;12.10;;;6.13;;
3491;SDS011;1760;52.480;13.422;2023-12-14T00:23:22;12.13;;;7.60;;
3491;SDS011;1760;52.480;13.422;2023-12-14T00:25:50;17.57;;;8.20;;
3491;SDS011;1760;52.480;13.422;2023-12-14T00:28:17;12.30;;;7.60;;
3491;SDS011;1760;52.480;13.422;2023-12-14T00:30:44;13.90;;;8.13;;
3491;SDS011;1760;52.480;13.422;2023-12-14T00:33:11;16.80;;;8.63;;
3491;SDS011;1760;52.480;13.422;2023-12-14T00:35:37;16.60;;;8.30;;
3491;SDS011;1760;52.480;13.422;2023-12-14T00:38:04;14.83;;;7.17;;
3491;SDS011;1760;52.480;13.422;2023-12-14T00:40:33;20.43;;;8.43;;
3491;SDS011;1760;52.480;13.422;2023-12-14T00:42:59;19.50;;;9.27;;
3491;SDS011;1760;52.480;13.422;2023-12-14T00:45:26;19.93;;;8.00;;
3491;SDS011;1760;52.480;13.422;2023-12-14T00:47:53;14.43;;;8.30;;
3491;SDS011;1760;52.480;13.422;2023-12-14T00:50:20;16.30;;;7.00;;
3491;SDS011;1760;52.480;13.422;2023-12-14T00:52:46;18.37;;;9.07;;
3491;SDS011;1760;52.480;13.422;2023-12-14T00:55:13;10.77;;;7.33;;
3491;SDS011;1760;52.480;13.422;2023-12-14T00:57:41;15.27;;;6.97;;
3491;SDS011;1760;52.480;13.422;2023-12-14T01:00:08;16.30;;;7.80;;
3491;SDS011;1760;52.480;13.422;2023-12-14T01:02:36;20.30;;;8.80;;
3491;SDS011;1760;52.480;13.422;2023-12-14T01:05:04;15.83;;;7.23;;
3491;SDS011;1760;52.480;13.422;2023-12-14T01:07:31;14.43;;;7.60;;
3491;SDS011;1760;52.480;13.422;2023-12-14T01:09:58;16.27;;;8.37;;
3491;SDS011;1760;52.480;13.422;2023-12-14T01:12:25;12.20;;;7.20;;
3491;SDS011;1760;52.480;13.422;2023-12-14T01:14:53;12.87;;;7.20;;
3491;SDS011;1760;52.480;13.422;2023-12-14T01:17:20;12.30;;;7.83;;
3491;SDS011;1760;52.480;13.422;2023-12-14T01:19:47;13.33;;;8.27;;
3491;SDS011;1760;52.480;13.422;2023-12-14T01:22:16;16.87;;;8.10;;
3491;SDS011;1760;52.480;13.422;2023-12-14T01:24:42;12.90;;;7.30;;
3491;SDS011;1760;52.480;13.422;2023-12-14T01:27:09;10.30;;;6.37;;
3491;SDS011;1760;52.480;13.422;2023-12-14T01:29:39;13.80;;;7.30;;
3491;SDS011;1760;52.480;13.422;2023-12-14T01:32:07;15.63;;;7.07;;
3491;SDS011;1760;52.480;13.422;2023-12-14T01:34:34;17.20;;;6.83;;
3491;SDS011;1760;52.480;13.422;2023-12-14T01:37:01;14.63;;;7.17;;
3491;SDS011;1760;52.480;13.422;2023-12-14T01:39:28;13.90;;;7.97;;
3491;SDS011;1760;52.480;13.422;2023-12-14T01:41:54;22.03;;;7.87;;
3491;SDS011;1760;52.480;13.422;2023-12-14T01:44:21;15.17;;;6.90;;
3491;SDS011;1760;52.480;13.422;2023-12-14T01:46:48;11.23;;;6.70;;
3491;SDS011;1760;52.480;13.422;2023-12-14T01:49:19;13.53;;;7.47;;
3491;SDS011;1760;52.480;13.422;2023-12-14T01:51:46;17.37;;;7.50;;
3491;SDS011;1760;52.480;13.422;2023-12-14T01:54:13;15.23;;;6.87;;
3491;SDS011;1760;52.480;13.422;2023-12-14T01:56:39;9.53;;;5.87;;
3491;SDS011;1760;52.480;13.422;2023-12-14T01:59:06;15.60;;;6.40;;
3491;SDS011;1760;52.480;13.422;2023-12-14T02:01:38;15.10;;;7.23;;
3491;SDS011;1760;52.480;13.422;2023-12-14T02:04:08;10.77;;;5.90;;
3491;SDS011;1760;52.480;13.422;2023-12-14T02:06:37;11.33;;;6.90;;
3491;SDS011;1760;52.480;13.422;2023-12-14T02:09:07;11.10;;;6.50;;
3491;SDS011;1760;52.480;13.422;2023-12-14T02:11:35;8.93;;;5.03;;
3491;SDS011;1760;52.480;13.422;2023-12-14T02:14:04;11.73;;;5.90;;
3491;SDS011;1760;52.480;13.422;2023-12-14T02:16:32;8.27;;;5.83;;
3491;SDS011;1760;52.480;13.422;2023-12-14T02:18:59;10.20;;;5.80;;
3491;SDS011;1760;52.480;13.422;2023-12-14T02:21:26;9.50;;;5.37;;
3491;SDS011;1760;52.480;13.422;2023-12-14T02:23:54;8.83;;;4.90;;
3491;SDS011;1760;52.480;13.422;2023-12-14T02:26:21;7.77;;;4.23;;
3491;SDS011;1760;52.480;13.422;2023-12-14T02:28:48;8.30;;;4.70;;
3491;SDS011;1760;52.480;13.422;2023-12-14T02:31:15;9.43;;;4.10;;
3491;SDS011;1760;52.480;13.422;2023-12-14T02:33:43;6.67;;;4.20;;
3491;SDS011;1760;52.480;13.422;2023-12-14T02:36:10;6.33;;;3.83;;
3491;SDS011;1760;52.480;13.422;2023-12-14T02:38:37;6.23;;;3.67;;
3491;SDS011;1760;52.480;13.422;2023-12-14T02:41:05;9.20;;;4.20;;
3491;SDS011;1760;52.480;13.422;2023-12-14T02:43:32;5.83;;;3.67;;
3491;SDS011;1760;52.480;13.422;2023-12-14T02:45:59;8.07;;;4.37;;
3491;SDS011;1760;52.480;13.422;2023-12-14T02:48:27;6.30;;;4.80;;
3491;SDS011;1760;52.480;13.422;2023-12-14T02:50:57;8.57;;;4.33;;
3491;SDS011;1760;52.480;13.422;2023-12-14T02:53:25;10.20;;;4.77;;
3491;SDS011;1760;52.480;13.422;2023-12-14T02:55:52;8.50;;;5.30;;
3491;SDS011;1760;52.480;13.422;2023-12-14T02:58:20;9.23;;;6.47;;
3491;SDS011;1760;52.480;13.422;2023-12-14T03:00:47;9.00;;;5.30;;
3491;SDS011;1760;52.480;13.422;2023-12-14T03:03:13;11.87;;;6.20;;
3491;SDS011;1760;52.480;13.422;2023-12-14T03:05:40;9.73;;;6.37;;
3491;SDS011;1760;52.480;13.422;2023-12-14T03:08:06;13.67;;;5.30;;
3491;SDS011;1760;52.480;13.422;2023-12-14T03:10:33;12.77;;;6.17;;
3491;SDS011;1760;52.480;13.422;2023-12-14T03:13:00;8.20;;;5.73;;
3491;SDS011;1760;52.480;13.422;2023-12-14T03:15:31;14.10;;;6.07;;
3491;SDS011;1760;52.480;13.422;2023-12-14T03:17:58;11.50;;;5.47;;
3491;SDS011;1760;52.480;13.422;2023-12-14T03:20:25;10.70;;;5.10;;
3491;SDS011;1760;52.480;13.422;2023-12-14T03:22:52;8.20;;;4.77;;
3491;SDS011;1760;52.480;13.422;2023-12-14T03:25:18;11.03;;;6.27;;
3491;SDS011;1760;52.480;13.422;2023-12-14T03:27:45;15.90;;;7.07;;
3491;SDS011;1760;52.480;13.422;2023-12-14T03:30:15;10.37;;;5.67;;
3491;SDS011;1760;52.480;13.422;2023-12-14T03:32:43;9.90;;;4.83;;
3491;SDS011;1760;52.480;13.422;2023-12-14T03:35:12;9.90;;;6.00;;
3491;SDS011;1760;52.480;13.422;2023-12-14T03:37:39;14.57;;;6.70;;
3491;SDS011;1760;52.480;13.422;2023-12-14T03:40:10;10.43;;;6.37;;
3491;SDS011;1760;52.480;13.422;2023-12-14T03:42:37;11.90;;;6.50;;
3491;SDS011;1760;52.480;13.422;2023-12-14T03:45:04;12.27;;;5.70;;
3491;SDS011;1760;52.480;13.422;2023-12-14T03:47:32;12.47;;;6.20;;
3491;SDS011;1760;52.480;13.422;2023-12-14T03:50:03;11.30;;;6.00;;
3491;SDS011;1760;52.480;13.422;2023-12-14T03:52:30;11.20;;;5.10;;
3491;SDS011;1760;52.480;13.422;2023-12-14T03:54:57;8.90;;;5.37;;
3491;SDS011;1760;52.480;13.422;2023-12-14T03:57:27;11.10;;;5.63;;
3491;SDS011;1760;52.480;13.422;2023-12-14T03:59:56;14.23;;;5.80;;
3491;SDS011;1760;52.480;13.422;2023-12-14T04:02:24;8.43;;;5.00;;
3491;SDS011;1760;52.480;13.422;2023-12-14T04:04:51;10.30;;;5.67;;
3491;SDS011;1760;52.480;13.422;2023-12-14T04:07:22;10.37;;;5.63;;
3491;SDS011;1760;52.480;13.422;2023-12-14T04:09:49;18.77;;;6.70;;
3491;SDS011;1760;52.480;13.422;2023-12-14T04:12:15;10.30;;;5.60;;
3491;SDS011;1760;52.480;13.422;2023-12-14T04:14:42;11.40;;;5.77;;
3491;SDS011;1760;52.480;13.422;2023-12-14T04:17:09;13.80;;;6.17;;
3491;SDS011;1760;52.480;13.422;2023-12-14T04:19:37;14.50;;;5.47;;
3491;SDS011;1760;52.480;13.422;2023-12-14T04:22:04;9.13;;;6.50;;
3491;SDS011;1760;52.480;13.422;2023-12-14T04:24:32;7.10;;;5.47;;
3491;SDS011;1760;52.480;13.422;2023-12-14T04:26:59;10.43;;;5.20;;
3491;SDS011;1760;52.480;13.422;2023-12-14T04:29:26;7.03;;;4.70;;
3491;SDS011;1760;52.480;13.422;2023-12-14T04:31:53;8.03;;;4.87;;
3491;SDS011;1760;52.480;13.422;2023-12-14T04:34:20;8.00;;;5.37;;
3491;SDS011;1760;52.480;13.422;2023-12-14T04:36:47;6.33;;;4.53;;
3491;SDS011;1760;52.480;13.422;2023-12-14T04:39:16;13.03;;;4.80;;
3491;SDS011;1760;52.480;13.422;2023-12-14T04:41:44;19.43;;;6.50;;
3491;SDS011;1760;52.480;13.422;2023-12-14T04:44:14;7.23;;;5.27;;
3491;SDS011;1760;52.480;13.422;2023-12-14T04:46:41;8.10;;;4.77;;
3491;SDS011;1760;52.480;13.422;2023-12-14T04:49:08;8.30;;;3.77;;
3491;SDS011;1760;52.480;13.422;2023-12-14T04:51:34;5.83;;;4.23;;
3491;SDS011;1760;52.480;13.422;2023-12-14T04:54:01;8.47;;;4.60;;
3491;SDS011;1760;52.480;13.422;2023-12-14T04:56:28;8.77;;;5.60;;
3491;SDS011;1760;52.480;13.422;2023-12-14T04:58:56;11.43;;;6.00;;
3491;SDS011;1760;52.480;13.422;2023-12-14T05:01:25;7.57;;;4.10;;
3491;SDS011;1760;52.480;13.422;2023-12-14T05:03:52;9.23;;;5.17;;
3491;SDS011;1760;52.480;13.422;2023-12-14T05:06:20;8.57;;;5.50;;
3491;SDS011;1760;52.480;13.422;2023-12-14T05:08:47;8.50;;;5.73;;
3491;SDS011;1760;52.480;13.422;2023-12-14T05:11:14;7.90;;;4.47;;
3491;SDS011;1760;52.480;13.422;2023-12-14T05:13:41;10.23;;;4.97;;
3491;SDS011;1760;52.480;13.422;2023-12-14T05:16:13;12.13;;;5.67;;
3491;SDS011;1760;52.480;13.422;2023-12-14T05:18:40;10.73;;;4.90;;
3491;SDS011;1760;52.480;13.422;2023-12-14T05:21:07;8.23;;;5.90;;
3491;SDS011;1760;52.480;13.422;2023-12-14T05:23:34;6.47;;;4.50;;
3491;SDS011;1760;52.480;13.422;2023-12-14T05:26:01;10.63;;;5.13;;
3491;SDS011;1760;52.480;13.422;2023-12-14T05:28:28;9.60;;;4.67;;
3491;SDS011;1760;52.480;13.422;2023-12-14T05:30:57;9.97;;;4.87;;
3491;SDS011;1760;52.480;13.422;2023-12-14T05:33:25;10.90;;;4.73;;
3491;SDS011;1760;52.480;13.422;2023-12-14T05:35:52;19.13;;;5.77;;
3491;SDS011;1760;52.480;13.422;2023-12-14T05:38:19;10.13;;;5.30;;
3491;SDS011;1760;52.480;13.422;2023-12-14T05:40:46;11.27;;;6.37;;
3491;SDS011;1760;52.480;13.422;2023-12-14T05:43:13;7.00;;;5.30;;
3491;SDS011;1760;52.480;13.422;2023-12-14T05:45:39;12.23;;;6.33;;
3491;SDS011;1760;52.480;13.422;2023-12-14T05:48:07;8.07;;;4.40;;
3491;SDS011;1760;52.480;13.422;2023-12-14T05:50:35;10.40;;;6.10;;
3491;SDS011;1760;52.480;13.422;2023-12-14T05:53:05;10.40;;;6.53;;
3491;SDS011;1760;52.480;13.422;2023-12-14T05:55:34;10.23;;;6.77;;
3491;SDS011;1760;52.480;13.422;2023-12-14T05:58:03;10.47;;;6.47;;
3491;SDS011;1760;52.480;13.422;2023-12-14T06:00:33;10.00;;;5.37;;
3491;SDS011;1760;52.480;13.422;2023-12-14T06:03:03;8.27;;;4.90;;
3491;SDS011;1760;52.480;13.422;2023-12-14T06:05:30;10.80;;;5.53;;
3491;SDS011;1760;52.480;13.422;2023-12-14T06:07:59;10.10;;;6.37;;
3491;SDS011;1760;52.480;13.422;2023-12-14T06:10:25;7.57;;;5.07;;
3491;SDS011;1760;52.480;13.422;2023-12-14T06:12:55;9.77;;;5.70;;
3491;SDS011;1760;52.480;13.422;2023-12-14T06:15:25;8.57;;;4.40;;
3491;SDS011;1760;52.480;13.422;2023-12-14T06:17:51;9.00;;;4.77;;
3491;SDS011;1760;52.480;13.422;2023-12-14T06:20:18;9.87;;;5.03;;
3491;SDS011;1760;52.480;13.422;2023-12-14T06:22:48;7.90;;;5.10;;
3491;SDS011;1760;52.480;13.422;2023-12-14T06:25:16;7.43;;;5.07;;
3491;SDS011;1760;52.480;13.422;2023-12-14T06:27:46;12.50;;;4.17;;
3491;SDS011;1760;52.480;13.422;2023-12-14T06:30:13;8.00;;;4.60;;
3491;SDS011;1760;52.480;13.422;2023-12-14T06:32:40;6.93;;;4.70;;
3491;SDS011;1760;52.480;13.422;2023-12-14T06:35:07;11.40;;;4.87;;
3491;SDS011;1760;52.480;13.422;2023-12-14T06:37:33;5.83;;;4.27;;
3491;SDS011;1760;52.480;13.422;2023-12-14T06:40:00;8.43;;;4.73;;
3491;SDS011;1760;52.480;13.422;2023-12-14T06:42:29;6.20;;;4.67;;
3491;SDS011;1760;52.480;13.422;2023-12-14T06:44:59;5.73;;;4.30;;
3491;SDS011;1760;52.480;13.422;2023-12-14T06:47:26;6.33;;;4.40;;
3491;SDS011;1760;52.480;13.422;2023-12-14T06:49:53;9.70;;;4.90;;
3491;SDS011;1760;52.480;13.422;2023-12-14T06:52:22;6.40;;;4.37;;
3491;SDS011;1760;52.480;13.422;2023-12-14T06:54:49;6.73;;;4.80;;
3491;SDS011;1760;52.480;13.422;2023-12-14T06:57:15;6.93;;;4.70;;
3491;SDS011;1760;52.480;13.422;2023-12-14T06:59:44;7.07;;;5.13;;
3491;SDS011;1760;52.480;13.422;2023-12-14T07:02:10;7.87;;;5.03;;
3491;SDS011;1760;52.480;13.422;2023-12-14T07:04:37;7.50;;;5.40;;
3491;SDS011;1760;52.480;13.422;2023-12-14T07:07:07;14.33;;;6.10;;
3491;SDS011;1760;52.480;13.422;2023-12-14T07:09:34;8.63;;;5.57;;
3491;SDS011;1760;52.480;13.422;2023-12-14T07:12:01;7.50;;;5.23;;
3491;SDS011;1760;52.480;13.422;2023-12-14T07:14:29;9.90;;;4.90;;
3491;SDS011;1760;52.480;13.422;2023-12-14T07:17:00;7.50;;;5.10;;
3491;SDS011;1760;52.480;13.422;2023-12-14T07:19:27;10.47;;;6.87;;
3491;SDS011;1760;52.480;13.422;2023-12-14T07:21:53;17.13;;;7.07;;
3491;SDS011;1760;52.480;13.422;2023-12-14T07:24:20;9.73;;;6.33;;
3491;SDS011;1760;52.480;13.422;2023-12-14T07:26:49;9.93;;;5.77;;
3491;SDS011;1760;52.480;13.422;2023-12-14T07:29:16;13.97;;;7.17;;
3491;SDS011;1760;52.480;13.422;2023-12-14T07:31:43;9.60;;;6.23;;
3491;SDS011;1760;52.480;13.422;2023-12-14T07:34:11;8.17;;;5.13;;
3491;SDS011;1760;52.480;13.422;2023-12-14T07:36:38;8.00;;;5.00;;
3491;SDS011;1760;52.480;13.422;2023-12-14T07:39:05;10.40;;;6.67;;
3491;SDS011;1760;52.480;13.422;2023-12-14T07:41:34;15.60;;;6.63;;
3491;SDS011;1760;52.480;13.422;2023-12-14T07:44:01;13.90;;;5.90;;
3491;SDS011;1760;52.480;13.422;2023-12-14T07:46:27;9.53;;;5.00;;
3491;SDS011;1760;52.480;13.422;2023-12-14T07:48:54;10.93;;;5.47;;
3491;SDS011;1760;52.480;13.422;2023-12-14T07:51:23;8.30;;;6.37;;
3491;SDS011;1760;52.480;13.422;2023-12-14T07:53:49;7.63;;;5.50;;
3491;SDS011;1760;52.480;13.422;2023-12-14T07:56:16;9.57;;;5.73;;
3491;SDS011;1760;52.480;13.422;2023-12-14T07:58:43;10.80;;;6.10;;
3491;SDS011;1760;52.480;13.422;2023-12-14T08:01:10;14.40;;;7.87;;
3491;SDS011;1760;52.480;13.422;2023-12-14T08:03:37;9.03;;;5.40;;
3491;SDS011;1760;52.480;13.422;2023-12-14T08:06:04;11.30;;;6.93;;
3491;SDS011;1760;52.480;13.422;2023-12-14T08:08:32;11.47;;;6.93;;
3491;SDS011;1760;52.480;13.422;2023-12-14T08:11:02;11.83;;;6.90;;
3491;SDS011;1760;52.480;13.422;2023-12-14T08:13:30;15.60;;;7.33;;
3491;SDS011;1760;52.480;13.422;2023-12-14T08:15:57;12.50;;;7.33;;
3491;SDS011;1760;52.480;13.422;2023-12-14T08:18:23;12.63;;;8.30;;
3491;SDS011;1760;52.480;13.422;2023-12-14T08:20:50;15.20;;;7.70;;
3491;SDS011;1760;52.480;13.422;2023-12-14T08:23:20;15.97;;;8.03;;
3491;SDS011;1760;52.480;13.422;2023-12-14T08:25:50;11.57;;;7.53;;
3491;SDS011;1760;52.480;13.422;2023-12-14T08:28:17;11.73;;;7.30;;
3491;SDS011;1760;52.480;13.422;2023-12-14T08:30:44;14.83;;;8.40;;
3491;SDS011;1760;52.480;13.422;2023-12-14T08:33:11;13.13;;;7.43;;
3491;SDS011;1760;52.480;13.422;2023-12-14T08:35:38;15.53;;;8.60;;
3491;SDS011;1760;52.480;13.422;2023-12-14T08:38:07;14.90;;;8.77;;
3491;SDS011;1760;52.480;13.422;2023-12-14T08:40:34;16.90;;;9.83;;
3491;SDS011;1760;52.480;13.422;2023-12-14T08:43:02;13.90;;;8.33;;
3491;SDS011;1760;52.480;13.422;2023-12-14T08:45:32;11.43;;;7.80;;
3491;SDS011;1760;52.480;13.422;2023-12-14T08:47:59;23.40;;;10.07;;
3491;SDS011;1760;52.480;13.422;2023-12-14T08:50:28;14.20;;;7.80;;
3491;SDS011;1760;52.480;13.422;2023-12-14T08:52:58;10.37;;;6.13;;
3491;SDS011;1760;52.480;13.422;2023-12-14T08:55:25;14.17;;;8.50;;
3491;SDS011;1760;52.480;13.422;2023-12-14T08:57:52;15.13;;;8.13;;
3491;SDS011;1760;52.480;13.422;2023-12-14T09:00:20;13.27;;;7.03;;
3491;SDS011;1760;52.480;13.422;2023-12-14T09:02:48;16.80;;;8.33;;
3491;SDS011;1760;52.480;13.422;2023-12-14T09:05:15;16.83;;;8.50;;
3491;SDS011;1760;52.480;13.422;2023-12-14T09:07:45;13.37;;;8.30;;
3491;SDS011;1760;52.480;13.422;2023-12-14T09:10:12;10.37;;;6.83;;
3491;SDS011;1760;52.480;13.422;2023-12-14T09:12:41;13.40;;;7.63;;
3491;SDS011;1760;52.480;13.422;2023-12-14T09:15:09;12.10;;;7.17;;
3491;SDS011;1760;52.480;13.422;2023-12-14T09:17:37;15.97;;;9.57;;
3491;SDS011;1760;52.480;13.422;2023-12-14T09:20:05;14.33;;;7.90;;
3491;SDS011;1760;52.480;13.422;2023-12-14T09:22:33;13.37;;;6.67;;
3491;SDS011;1760;52.480;13.422;2023-12-14T09:25:00;10.67;;;7.00;;
3491;SDS011;1760;52.480;13.422;2023-12-14T09:27:40;11.47;;;7.97;;
3491;SDS011;1760;52.480;13.422;2023-12-14T09:30:08;11.47;;;7.70;;
3491;SDS011;1760;52.480;13.422;2023-12-14T09:32:38;13.67;;;7.87;;
3491;SDS011;1760;52.480;13.422;2023-12-14T09:35:06;11.43;;;7.60;;
3491;SDS011;1760;52.480;13.422;2023-12-14T09:37:35;10.80;;;6.60;;
3491;SDS011;1760;52.480;13.422;2023-12-14T09:40:02;14.10;;;7.73;;
3491;SDS011;1760;52.480;13.422;2023-12-14T09:42:30;11.83;;;7.27;;
3491;SDS011;1760;52.480;13.422;2023-12-14T09:45:04;10.07;;;6.93;;
3491;SDS011;1760;52.480;13.422;2023-12-14T09:47:33;10.77;;;6.80;;
3491;SDS011;1760;52.480;13.422;2023-12-14T09:50:02;10.13;;;6.70;;
3491;SDS011;1760;52.480;13.422;2023-12-14T09:52:30;11.73;;;6.97;;
3491;SDS011;1760;52.480;13.422;2023-12-14T09:54:58;10.73;;;6.17;;
3491;SDS011;1760;52.480;13.422;2023-12-14T09:57:25;8.67;;;5.83;;
3491;SDS011;1760;52.480;13.422;2023-12-14T09:59:55;15.80;;;7.10;;
3491;SDS011;1760;52.480;13.422;2023-12-14T10:02:24;10.70;;;6.77;;
3491;SDS011;1760;52.480;13.422;2023-12-14T10:04:52;10.47;;;6.60;;
3491;SDS011;1760;52.480;13.422;2023-12-14T10:07:22;11.50;;;7.90;;
3491;SDS011;1760;52.480;13.422;2023-12-14T10:09:49;9.07;;;6.20;;
3491;SDS011;1760;52.480;13.422;2023-12-14T10:12:17;7.50;;;5.77;;
3491;SDS011;1760;52.480;13.422;2023-12-14T10:14:46;8.70;;;5.33;;
3491;SDS011;1760;52.480;13.422;2023-12-14T10:17:14;9.30;;;6.70;;
3491;SDS011;1760;52.480;13.422;2023-12-14T10:19:43;10.60;;;6.10;;
3491;SDS011;1760;52.480;13.422;2023-12-14T10:22:11;10.23;;;6.20;;
3491;SDS011;1760;52.480;13.422;2023-12-14T10:24:44;8.53;;;6.10;;
3491;SDS011;1760;52.480;13.422;2023-12-14T10:27:14;9.10;;;6.00;;
3491;SDS011;1760;52.480;13.422;2023-12-14T10:29:42;14.90;;;6.90;;
3491;SDS011;1760;52.480;13.422;2023-12-14T10:32:10;9.60;;;6.60;;
3491;SDS011;1760;52.480;13.422;2023-12-14T10:34:37;11.77;;;6.53;;
3491;SDS011;1760;52.480;13.422;2023-12-14T10:37:05;12.80;;;8.30;;
3491;SDS011;1760;52.480;13.422;2023-12-14T10:39:33;9.70;;;6.37;;
3491;SDS011;1760;52.480;13.422;2023-12-14T10:42:06;10.70;;;6.70;;
3491;SDS011;1760;52.480;13.422;2023-12-14T10:45:06;8.93;;;6.07;;
3491;SDS011;1760;52.480;13.422;2023-12-14T10:47:45;10.77;;;7.03;;
3491;SDS011;1760;52.480;13.422;2023-12-14T10:50:30;9.40;;;6.63;;
3491;SDS011;1760;52.480;13.422;2023-12-14T10:53:02;12.07;;;6.90;;
3491;SDS011;1760;52.480;13.422;2023-12-14T10:56:21;20.70;;;7.50;;
3491;SDS011;1760;52.480;13.422;2023-12-14T10:58:50;15.60;;;7.77;;
3491;SDS011;1760;52.480;13.422;2023-12-14T11:01:19;11.37;;;7.37;;
3491;SDS011;1760;52.480;13.422;2023-12-14T11:03:47;13.27;;;7.60;;
3491;SDS011;1760;52.480;13.422;2023-12-14T11:06:21;14.23;;;8.00;;
3491;SDS011;1760;52.480;13.422;2023-12-14T11:08:56;13.00;;;7.50;;
3491;SDS011;1760;52.480;13.422;2023-12-14T11:11:40;20.40;;;8.37;;
3491;SDS011;1760;52.480;13.422;2023-12-14T11:14:10;9.53;;;5.97;;
3491;SDS011;1760;52.480;13.422;2023-12-14T11:16:38;9.30;;;7.13;;
3491;SDS011;1760;52.480;13.422;2023-12-14T11:19:26;14.60;;;7.43;;
3491;SDS011;1760;52.480;13.422;2023-12-14T11:22:11;13.50;;;7.47;;
3491;SDS011;1760;52.480;13.422;2023-12-14T11:24:50;11.77;;;7.17;;
3491;SDS011;1760;52.480;13.422;2023-12-14T11:27:20;10.90;;;6.80;;
3491;SDS011;1760;52.480;13.422;2023-12-14T11:29:53;11.17;;;6.60;;
3491;SDS011;1760;52.480;13.422;2023-12-14T11:32:24;11.50;;;7.70;;
3491;SDS011;1760;52.480;13.422;2023-12-14T11:34:53;14.50;;;7.53;;
3491;SDS011;1760;52.480;13.422;2023-12-14T11:37:21;12.40;;;9.00;;
3491;SDS011;1760;52.480;13.422;2023-12-14T11:39:49;11.83;;;8.50;;
3491;SDS011;1760;52.480;13.422;2023-12-14T11:42:19;13.07;;;7.50;;
3491;SDS011;1760;52.480;13.422;2023-12-14T11:44:46;11.90;;;7.27;;
3491;SDS011;1760;52.480;13.422;2023-12-14T11:47:16;11.90;;;8.73;;
3491;SDS011;1760;52.480;13.422;2023-12-14T11:49:46;13.97;;;8.03;;
3491;SDS011;1760;52.480;13.422;2023-12-14T11:52:13;13.60;;;7.17;;
3491;SDS011;1760;52.480;13.422;2023-12-14T11:54:39;12.60;;;7.13;;
3491;SDS011;1760;52.480;13.422;2023-12-14T11:57:06;15.60;;;8.27;;
3491;SDS011;1760;52.480;13.422;2023-12-14T11:59:34;14.90;;;7.43;;
3491;SDS011;1760;52.480;13.422;2023-12-14T12:02:08;13.67;;;7.80;;
3491;SDS011;1760;52.480;13.422;2023-12-14T12:04:36;11.23;;;7.63;;
3491;SDS011;1760;52.480;13.422;2023-12-14T12:07:06;20.03;;;8.97;;
3491;SDS011;1760;52.480;13.422;2023-12-14T12:09:36;11.63;;;6.80;;
3491;SDS011;1760;52.480;13.422;2023-12-14T12:12:08;12.07;;;7.83;;
3491;SDS011;1760;52.480;13.422;2023-12-14T12:14:37;18.73;;;9.50;;
3491;SDS011;1760;52.480;13.422;2023-12-14T12:17:05;16.00;;;7.47;;
3491;SDS011;1760;52.480;13.422;2023-12-14T12:19:35;13.03;;;7.73;;
3491;SDS011;1760;52.480;13.422;2023-12-14T12:22:03;12.63;;;7.33;;
3491;SDS011;1760;52.480;13.422;2023-12-14T12:24:30;12.27;;;7.80;;
3491;SDS011;1760;52.480;13.422;2023-12-14T12:26:57;8.90;;;6.67;;
3491;SDS011;1760;52.480;13.422;2023-12-14T12:29:24;12.67;;;6.97;;
3491;SDS011;1760;52.480;13.422;2023-12-14T12:31:51;12.00;;;8.03;;
3491;SDS011;1760;52.480;13.422;2023-12-14T12:34:18;11.90;;;7.53;;
3491;SDS011;1760;52.480;13.422;2023-12-14T12:36:46;11.93;;;6.70;;
3491;SDS011;1760;52.480;13.422;2023-12-14T12:39:13;13.20;;;8.43;;
3491;SDS011;1760;52.480;13.422;2023-12-14T12:41:41;11.00;;;7.33;;
3491;SDS011;1760;52.480;13.422;2023-12-14T12:44:07;12.07;;;7.60;;
3491;SDS011;1760;52.480;13.422;2023-12-14T12:46:35;11.77;;;6.87;;
3491;SDS011;1760;52.480;13.422;2023-12-14T12:49:06;13.40;;;8.43;;
3491;SDS011;1760;52.480;13.422;2023-12-14T12:51:33;14.10;;;8.70;;
3491;SDS011;1760;52.480;13.422;2023-12-14T12:54:01;10.30;;;6.67;;
3491;SDS011;1760;52.480;13.422;2023-12-14T12:56:28;14.53;;;8.10;;
3491;SDS011;1760;52.480;13.422;2023-12-14T12:58:55;15.20;;;7.60;;
3491;SDS011;1760;52.480;13.422;2023-12-14T13:01:22;16.43;;;8.30;;
3491;SDS011;1760;52.480;13.422;2023-12-14T13:03:52;11.07;;;7.53;;
3491;SDS011;1760;52.480;13.422;2023-12-14T13:06:21;14.10;;;8.63;;
3491;SDS011;1760;52.480;13.422;2023-12-14T13:08:49;15.07;;;8.10;;
3491;SDS011;1760;52.480;13.422;2023-12-14T13:11:18;15.10;;;8.27;;
3491;SDS011;1760;52.480;13.422;2023-12-14T13:13:45;12.37;;;7.57;;
3491;SDS011;1760;52.480;13.422;2023-12-14T13:16:12;14.67;;;8.20;;
3491;SDS011;1760;52.480;13.422;2023-12-14T13:18:41;11.17;;;8.20;;
3491;SDS011;1760;52.480;13.422;2023-12-14T13:21:08;11.57;;;7.90;;
3491;SDS011;1760;52.480;13.422;2023-12-14T13:23:35;12.10;;;7.77;;
3491;SDS011;1760;52.480;13.422;2023-12-14T13:26:02;42.43;;;12.63;;
3491;SDS011;1760;52.480;13.422;2023-12-14T13:28:31;22.20;;;7.93;;
3491;SDS011;1760;52.480;13.422;2023-12-14T13:30:58;11.23;;;7.10;;
3491;SDS011;1760;52.480;13.422;2023-12-14T13:33:25;16.63;;;8.33;;
3491;SDS011;1760;52.480;13.422;2023-12-14T13:35:52;13.33;;;6.40;;
3491;SDS011;1760;52.480;13.422;2023-12-14T13:38:20;15.03;;;7.20;;
3491;SDS011;1760;52.480;13.422;2023-12-14T13:40:47;15.07;;;7.80;;
3491;SDS011;1760;52.480;13.422;2023-12-14T13:43:14;13.40;;;7.57;;
3491;SDS011;1760;52.480;13.422;2023-12-14T13:45:42;18.63;;;8.80;;
3491;SDS011;1760;52.480;13.422;2023-12-14T13:48:09;15.00;;;7.80;;
3491;SDS011;1760;52.480;13.422;2023-12-14T13:50:36;11.97;;;7.87;;
3491;SDS011;1760;52.480;13.422;2023-12-14T13:53:03;11.00;;;7.23;;
3491;SDS011;1760;52.480;13.422;2023-12-14T13:55:30;11.30;;;7.80;;
3491;SDS011;1760;52.480;13.422;2023-12-14T13:57:57;14.10;;;7.70;;
3491;SDS011;1760;52.480;13.422;2023-12-14T14:00:26;16.30;;;8.93;;
3491;SDS011;1760;52.480;13.422;2023-12-14T14:02:54;15.93;;;9.40;;
3491;SDS011;1760;52.480;13.422;2023-12-14T14:05:21;16.60;;;8.10;;
3491;SDS011;1760;52.480;13.422;2023-12-14T14:07:48;14.90;;;7.27;;
3491;SDS011;1760;52.480;13.422;2023-12-14T14:10:16;15.70;;;9.47;;
3491;SDS011;1760;52.480;13.422;2023-12-14T14:12:43;17.67;;;11.23;;
3491;SDS011;1760;52.480;13.422;2023-12-14T14:15:11;14.27;;;8.93;;
3491;SDS011;1760;52.480;13.422;2023-12-14T14:17:38;14.20;;;7.50;;
3491;SDS011;1760;52.480;13.422;2023-12-14T14:20:07;12.17;;;8.03;;
3491;SDS011;1760;52.480;13.422;2023-12-14T14:22:35;15.53;;;10.23;;
3491;SDS011;1760;52.480;13.422;2023-12-14T14:25:02;13.00;;;8.37;;
3491;SDS011;1760;52.480;13.422;2023-12-14T14:27:31;15.93;;;7.80;;
3491;SDS011;1760;52.480;13.422;2023-12-14T14:29:58;15.50;;;7.07;;
3491;SDS011;1760;52.480;13.422;2023-12-14T14:32:26;11.63;;;6.87;;
3491;SDS011;1760;52.480;13.422;2023-12-14T14:34:53;12.87;;;8.30;;
3491;SDS011;1760;52.480;13.422;2023-12-14T14:37:23;13.47;;;7.10;;
3491;SDS011;1760;52.480;13.422;2023-12-14T14:39:50;11.60;;;8.00;;
3491;SDS011;1760;52.480;13.422;2023-12-14T14:42:17;14.90;;;8.03;;
3491;SDS011;1760;52.480;13.422;2023-12-14T14:44:44;15.60;;;8.37;;
3491;SDS011;1760;52.480;13.422;2023-12-14T14:47:12;14.23;;;8.00;;
3491;SDS011;1760;52.480;13.422;2023-12-14T14:49:39;12.60;;;7.40;;
3491;SDS011;1760;52.480;13.422;2023-12-14T14:52:08;20.00;;;10.67;;
3491;SDS011;1760;52.480;13.422;2023-12-14T14:54:36;15.00;;;8.00;;
3491;SDS011;1760;52.480;13.422;2023-12-14T14:57:03;13.23;;;7.40;;